createdAt,value
2022-12-18T00:01:53.688Z,77.28
2022-12-18T00:04:41.747Z,76.89
2022-12-18T00:07:23.675Z,76.79
2022-12-18T00:10:15.465Z,76.54
2022-12-18T00:12:49.816Z,76.12
2022-12-18T00:15:37.706Z,75.81
2022-12-18T00:18:32.817Z,75.64
2022-12-18T00:21:27.818Z,75.51
2022-12-18T00:24:23.742Z,75.34
2022-12-18T00:27:18.810Z,75.23
2022-12-18T00:30:13.708Z,75.30
2022-12-18T00:33:08.737Z,75.52
2022-12-18T00:36:03.701Z,75.63
2022-12-18T00:38:59.787Z,75.69
2022-12-18T00:42:05.738Z,75.47
2022-12-18T00:44:53.710Z,75.37
2022-12-18T00:47:34.859Z,75.48
2022-12-18T00:50:22.719Z,75.50
2022-12-18T00:53:04.711Z,75.52
2022-12-18T00:55:59.694Z,75.50
2022-12-18T00:58:47.711Z,75.51
2022-12-18T01:01:22.949Z,75.29
2022-12-18T01:04:10.663Z,75.29
2022-12-18T01:06:45.831Z,75.14
2022-12-18T01:09:34.808Z,75.07
2022-12-18T01:12:09.843Z,74.95
2022-12-18T01:15:04.786Z,74.97
2022-12-18T01:17:59.670Z,74.99
2022-12-18T01:20:54.680Z,75.00
2022-12-18T01:23:49.674Z,75.07
2022-12-18T01:26:44.695Z,75.13
2022-12-18T01:29:39.736Z,75.23
2022-12-18T01:32:34.855Z,75.09
2022-12-18T01:35:29.672Z,74.79
2022-12-18T01:38:37.693Z,74.96
2022-12-18T01:42:05.667Z,74.99
2022-12-18T01:45:13.658Z,75.15
2022-12-18T01:48:12.678Z,75.18
2022-12-18T01:51:07.657Z,75.20
2022-12-18T01:53:55.693Z,75.03
2022-12-18T01:56:30.797Z,74.66
2022-12-18T01:59:19.687Z,74.86
2022-12-18T02:02:14.815Z,74.85
2022-12-18T02:05:09.693Z,74.91
2022-12-18T02:08:36.725Z,74.83
2022-12-18T02:11:55.779Z,74.82
2022-12-18T02:14:42.827Z,74.22
2022-12-18T02:17:36.685Z,74.09
2022-12-18T02:20:39.840Z,74.10
2022-12-18T02:23:49.818Z,74.43
2022-12-18T02:26:34.810Z,74.57
2022-12-18T02:29:30.810Z,74.53
2022-12-18T02:32:06.872Z,74.49
2022-12-18T02:34:54.692Z,74.53
2022-12-18T02:37:30.965Z,74.36
2022-12-18T02:40:20.848Z,74.20
2022-12-18T02:42:55.984Z,74.25
2022-12-18T02:45:43.735Z,74.28
2022-12-18T02:48:44.677Z,74.45
2022-12-18T02:51:46.666Z,74.51
2022-12-18T02:55:10.807Z,74.46
2022-12-18T02:58:24.856Z,74.39
2022-12-18T03:01:32.979Z,74.42
2022-12-18T03:04:37.798Z,74.43
2022-12-18T03:07:17.824Z,74.50
2022-12-18T03:10:05.658Z,74.43
2022-12-18T03:13:08.670Z,74.16
2022-12-18T03:16:06.667Z,73.92
2022-12-18T03:19:06.677Z,73.66
2022-12-18T03:22:04.695Z,73.52
2022-12-18T03:25:00.657Z,73.50
2022-12-18T03:27:54.681Z,73.46
2022-12-18T03:30:29.852Z,73.36
2022-12-18T03:33:33.675Z,73.38
2022-12-18T03:36:15.672Z,73.40
2022-12-18T03:39:10.626Z,73.47
2022-12-18T03:42:12.673Z,73.47
2022-12-18T03:45:28.646Z,73.38
2022-12-18T03:48:24.670Z,73.44
2022-12-18T03:51:08.751Z,73.41
2022-12-18T03:54:16.661Z,73.34
2022-12-18T03:56:54.792Z,73.15
2022-12-18T03:59:43.614Z,73.10
2022-12-18T04:02:25.725Z,73.15
2022-12-18T04:05:08.848Z,73.23
2022-12-18T04:07:56.664Z,73.22
2022-12-18T04:10:44.648Z,73.13
2022-12-18T04:13:36.932Z,73.19
2022-12-18T04:16:12.827Z,73.35
2022-12-18T04:19:01.670Z,73.36
2022-12-18T04:21:56.650Z,73.53
2022-12-18T04:24:51.673Z,73.53
2022-12-18T04:27:46.648Z,73.37
2022-12-18T04:30:34.640Z,73.37
2022-12-18T04:33:08.892Z,73.29
2022-12-18T04:35:56.655Z,73.16
2022-12-18T04:38:44.856Z,73.28
2022-12-18T04:41:25.647Z,73.28
2022-12-18T04:44:13.659Z,73.15
2022-12-18T04:46:48.963Z,73.13
2022-12-18T04:49:36.649Z,73.09
2022-12-18T04:52:11.782Z,73.20
2022-12-18T04:54:59.634Z,73.14
2022-12-18T04:57:54.823Z,73.11
2022-12-18T05:00:49.648Z,73.17
2022-12-18T05:03:46.022Z,73.38
2022-12-18T05:06:34.640Z,73.43
2022-12-18T05:09:29.636Z,73.42
2022-12-18T05:12:24.648Z,73.41
2022-12-18T05:15:20.636Z,73.22
2022-12-18T05:18:08.647Z,73.21
2022-12-18T05:20:50.638Z,73.18
2022-12-18T05:23:45.649Z,73.28
2022-12-18T05:26:40.645Z,73.27
2022-12-18T05:29:36.628Z,73.35
2022-12-18T05:32:24.633Z,73.47
2022-12-18T05:34:59.877Z,73.58
2022-12-18T05:37:47.641Z,73.65
2022-12-18T05:40:29.572Z,73.71
2022-12-18T05:43:25.632Z,73.74
2022-12-18T05:46:23.835Z,73.61
2022-12-18T05:49:18.814Z,73.59
2022-12-18T05:52:06.752Z,73.69
2022-12-18T05:55:01.632Z,73.74
2022-12-18T05:57:56.635Z,73.70
2022-12-18T06:00:53.619Z,73.72
2022-12-18T06:03:41.971Z,73.82
2022-12-18T06:06:43.630Z,73.88
2022-12-18T06:09:38.626Z,73.99
2022-12-18T06:12:33.625Z,73.96
2022-12-18T06:15:28.637Z,73.90
2022-12-18T06:18:23.815Z,73.88
2022-12-18T06:21:18.605Z,73.79
2022-12-18T06:24:14.619Z,73.84
2022-12-18T06:27:02.613Z,73.77
2022-12-18T06:29:37.772Z,73.80
2022-12-18T06:32:25.619Z,73.84
2022-12-18T06:35:14.626Z,73.89
2022-12-18T06:37:49.049Z,73.90
2022-12-18T06:40:36.618Z,74.00
2022-12-18T06:43:11.031Z,74.09
2022-12-18T06:46:00.662Z,74.15
2022-12-18T06:48:42.630Z,74.22
2022-12-18T06:51:38.607Z,74.10
2022-12-18T06:54:33.628Z,74.10
2022-12-18T06:57:28.782Z,74.06
2022-12-18T07:00:23.604Z,73.89
2022-12-18T07:03:18.617Z,73.67
2022-12-18T07:06:06.600Z,73.76
2022-12-18T07:08:41.768Z,73.76
2022-12-18T07:11:29.609Z,73.57
2022-12-18T07:14:04.742Z,73.41
2022-12-18T07:16:52.791Z,73.20
2022-12-18T07:19:47.586Z,73.06
2022-12-18T07:22:35.618Z,72.88
2022-12-18T07:25:30.542Z,72.93
2022-12-18T07:28:20.623Z,72.81
2022-12-18T07:31:02.792Z,72.77
2022-12-18T07:33:58.612Z,72.61
2022-12-18T07:36:53.720Z,72.26
2022-12-18T07:39:43.701Z,72.08
2022-12-18T07:42:40.750Z,72.13
2022-12-18T07:45:35.779Z,71.79
2022-12-18T07:48:30.608Z,71.54
2022-12-18T07:51:25.758Z,71.37
2022-12-18T07:54:22.808Z,71.24
2022-12-18T07:57:41.803Z,70.88
2022-12-18T08:00:32.594Z,70.96
2022-12-18T08:03:28.067Z,71.10
2022-12-18T08:06:24.951Z,70.83
2022-12-18T08:09:12.606Z,70.52
2022-12-18T08:11:47.729Z,70.30
2022-12-18T08:14:35.600Z,70.22
2022-12-18T08:17:17.582Z,69.75
2022-12-18T08:20:05.775Z,69.80
2022-12-18T08:22:52.790Z,69.81
2022-12-18T08:25:43.797Z,69.40
2022-12-18T08:28:32.760Z,68.85
2022-12-18T08:31:09.770Z,68.30
2022-12-18T08:33:57.585Z,67.99
2022-12-18T08:36:32.301Z,67.63
2022-12-18T08:39:20.749Z,67.19
2022-12-18T08:42:33.773Z,66.94
2022-12-18T08:45:28.946Z,66.40
2022-12-18T08:48:23.778Z,66.30
2022-12-18T08:51:11.905Z,65.85
2022-12-18T08:53:46.792Z,65.45
2022-12-18T08:56:41.743Z,65.31
2022-12-18T08:59:36.576Z,64.70
2022-12-18T09:02:31.823Z,64.50
2022-12-18T09:05:26.593Z,64.21
2022-12-18T09:08:22.674Z,64.08
2022-12-18T09:11:17.593Z,63.36
2022-12-18T09:14:13.584Z,63.04
2022-12-18T09:17:09.158Z,62.91
2022-12-18T09:20:04.600Z,63.01
2022-12-18T09:22:59.741Z,62.95
2022-12-18T09:25:47.589Z,63.25
2022-12-18T09:28:24.713Z,63.47
2022-12-18T09:31:15.886Z,63.62
2022-12-18T09:33:59.580Z,63.33
2022-12-18T09:36:55.836Z,62.46
2022-12-18T09:39:43.671Z,62.21
2022-12-18T09:42:29.729Z,61.70
2022-12-18T09:45:28.766Z,61.34
2022-12-18T09:48:44.562Z,61.29
2022-12-18T09:51:47.780Z,61.51
2022-12-18T09:54:54.604Z,60.54
2022-12-18T09:57:54.612Z,60.34
2022-12-18T10:00:43.064Z,60.14
2022-12-18T10:03:21.475Z,59.53
2022-12-18T10:07:18.661Z,59.01
2022-12-18T10:10:21.615Z,59.54
2022-12-18T10:13:36.614Z,59.44
2022-12-18T10:16:37.761Z,58.92
2022-12-18T10:20:13.622Z,58.22
2022-12-18T10:23:13.582Z,58.10
2022-12-18T10:26:20.570Z,57.93
2022-12-18T10:29:16.562Z,58.36
2022-12-18T10:32:11.705Z,58.01
2022-12-18T10:35:11.346Z,57.86
2022-12-18T10:38:36.673Z,57.86
2022-12-18T10:41:34.718Z,57.35
2022-12-18T10:44:38.411Z,57.34
2022-12-18T10:47:27.556Z,57.85
2022-12-18T10:50:02.719Z,57.62
2022-12-18T10:52:57.770Z,57.85
2022-12-18T10:55:55.186Z,57.98
2022-12-18T10:58:46.221Z,57.51
2022-12-18T11:01:23.056Z,57.43
2022-12-18T11:04:16.670Z,57.09
2022-12-18T11:07:10.546Z,57.15
2022-12-18T11:10:30.753Z,57.16
2022-12-18T11:13:35.780Z,57.30
2022-12-18T11:16:34.632Z,57.51
2022-12-18T11:19:41.545Z,56.80
2022-12-18T11:22:42.550Z,56.04
2022-12-18T11:25:34.697Z,56.37
2022-12-18T11:28:44.454Z,56.43
2022-12-18T11:31:43.635Z,56.11
2022-12-18T11:34:45.748Z,55.51
2022-12-18T11:37:40.541Z,55.63
2022-12-18T11:40:41.351Z,56.01
2022-12-18T11:43:22.091Z,55.88
2022-12-18T11:46:20.095Z,55.44
2022-12-18T11:49:21.549Z,55.40
2022-12-18T11:52:33.536Z,54.82
2022-12-18T11:55:34.558Z,54.59
2022-12-18T11:58:42.733Z,54.52
2022-12-18T12:01:46.637Z,54.59
2022-12-18T12:04:56.633Z,54.56
2022-12-18T12:08:24.734Z,54.16
2022-12-18T12:11:57.535Z,53.66
2022-12-18T12:15:30.635Z,53.41
2022-12-18T12:18:46.612Z,53.65
2022-12-18T12:21:55.759Z,53.98
2022-12-18T12:25:35.541Z,53.81
2022-12-18T12:28:34.548Z,53.51
2022-12-18T12:31:28.579Z,53.16
2022-12-18T12:34:15.684Z,53.23
2022-12-18T12:37:32.529Z,53.48
2022-12-18T12:40:48.798Z,52.94
2022-12-18T12:43:51.955Z,52.81
2022-12-18T12:46:41.591Z,52.56
2022-12-18T12:49:31.191Z,53.23
2022-12-18T12:52:47.540Z,53.63
2022-12-18T12:55:44.864Z,53.62
2022-12-18T12:58:40.529Z,53.69
2022-12-18T13:01:55.656Z,53.99
2022-12-18T13:05:01.532Z,54.20
2022-12-18T13:08:10.537Z,54.50
2022-12-18T13:11:11.592Z,54.80
2022-12-18T13:14:03.527Z,55.24
2022-12-18T13:16:38.672Z,55.41
2022-12-18T13:19:32.527Z,55.56
2022-12-18T13:22:35.534Z,55.61
2022-12-18T13:25:49.570Z,55.25
2022-12-18T13:28:47.612Z,56.21
2022-12-18T13:31:54.535Z,56.83
2022-12-18T13:34:37.071Z,56.85
2022-12-18T13:37:55.521Z,57.15
2022-12-18T13:40:55.596Z,56.94
2022-12-18T13:43:50.506Z,56.95
2022-12-18T13:46:25.803Z,57.58
2022-12-18T13:49:22.721Z,57.23
2022-12-18T13:51:59.848Z,57.64
2022-12-18T13:54:48.512Z,57.70
2022-12-18T13:57:48.724Z,57.57
2022-12-18T14:00:39.526Z,57.89
2022-12-18T14:03:33.661Z,58.37
2022-12-18T14:06:29.029Z,58.68
2022-12-18T14:09:41.630Z,59.05
2022-12-18T14:13:01.094Z,59.78
2022-12-18T14:15:54.517Z,60.41
2022-12-18T14:19:13.851Z,61.19
2022-12-18T14:22:10.641Z,61.83
2022-12-18T14:25:28.583Z,62.26
2022-12-18T14:28:16.550Z,62.93
2022-12-18T14:31:11.575Z,63.49
2022-12-18T14:34:07.512Z,63.95
2022-12-18T14:37:10.946Z,64.55
2022-12-18T14:40:16.659Z,65.05
2022-12-18T14:43:11.531Z,65.43
2022-12-18T14:46:07.598Z,65.70
2022-12-18T14:48:57.499Z,66.08
2022-12-18T14:51:44.562Z,66.21
2022-12-18T14:54:40.494Z,66.86
2022-12-18T14:57:32.512Z,67.05
2022-12-18T15:00:27.635Z,66.72
2022-12-18T15:03:16.570Z,66.77
2022-12-18T15:05:51.636Z,66.82
2022-12-18T15:08:44.487Z,67.10
2022-12-18T15:11:42.649Z,67.36
2022-12-18T15:14:43.496Z,67.54
2022-12-18T15:17:43.506Z,67.71
2022-12-18T15:20:38.504Z,67.49
2022-12-18T15:23:43.891Z,67.64
2022-12-18T15:26:39.493Z,67.94
2022-12-18T15:29:29.507Z,68.03
2022-12-18T15:32:08.662Z,67.98
2022-12-18T15:34:56.492Z,68.28
2022-12-18T15:37:38.507Z,68.38
2022-12-18T15:40:37.903Z,68.58
2022-12-18T15:43:44.387Z,68.91
2022-12-18T15:46:34.725Z,68.88
2022-12-18T15:49:29.522Z,68.79
2022-12-18T15:52:20.651Z,68.88
2022-12-18T15:55:20.572Z,69.03
2022-12-18T15:58:15.506Z,68.83
2022-12-18T16:01:14.805Z,69.02
2022-12-18T16:04:09.559Z,69.23
2022-12-18T16:07:14.482Z,69.26
2022-12-18T16:10:10.735Z,69.45
2022-12-18T16:13:05.636Z,69.59
2022-12-18T16:16:00.653Z,69.73
2022-12-18T16:18:48.618Z,69.98
2022-12-18T16:21:44.518Z,70.25
2022-12-18T16:24:50.638Z,70.74
2022-12-18T16:27:46.510Z,70.87
2022-12-18T16:30:39.799Z,71.49
2022-12-18T16:33:18.672Z,71.71
2022-12-18T16:36:06.936Z,71.81
2022-12-18T16:38:45.144Z,71.83
2022-12-18T16:41:39.637Z,71.87
2022-12-18T16:44:15.195Z,71.97
2022-12-18T16:47:10.296Z,72.13
2022-12-18T16:49:52.480Z,72.18
2022-12-18T16:52:49.496Z,72.19
2022-12-18T16:55:45.561Z,72.11
2022-12-18T16:58:33.920Z,71.87
2022-12-18T17:01:08.852Z,71.66
2022-12-18T17:04:14.686Z,71.52
2022-12-18T17:06:55.009Z,71.39
2022-12-18T17:09:45.666Z,71.25
2022-12-18T17:12:40.479Z,71.05
2022-12-18T17:15:35.478Z,70.90
2022-12-18T17:18:30.761Z,71.12
2022-12-18T17:21:28.478Z,70.91
2022-12-18T17:24:24.719Z,70.68
2022-12-18T17:27:23.572Z,70.74
2022-12-18T17:30:12.480Z,70.55
2022-12-18T17:32:47.626Z,70.35
2022-12-18T17:35:40.735Z,70.63
2022-12-18T17:38:15.779Z,70.54
2022-12-18T17:41:10.652Z,70.57
2022-12-18T17:43:46.666Z,70.73
2022-12-18T17:46:37.525Z,70.67
2022-12-18T17:49:17.590Z,70.64
2022-12-18T17:52:13.559Z,70.83
2022-12-18T17:55:09.435Z,70.86
2022-12-18T17:57:59.455Z,71.13
2022-12-18T18:00:35.535Z,71.06
2022-12-18T18:03:24.810Z,71.11
2022-12-18T18:06:10.530Z,71.05
2022-12-18T18:09:05.479Z,71.10
2022-12-18T18:12:13.502Z,70.99
2022-12-18T18:14:48.717Z,70.84
2022-12-18T18:17:47.120Z,70.98
2022-12-18T18:20:37.674Z,70.75
2022-12-18T18:23:37.593Z,70.80
2022-12-18T18:26:36.486Z,70.71
2022-12-18T18:29:37.469Z,70.73
2022-12-18T18:32:32.475Z,70.88
2022-12-18T18:35:52.963Z,70.86
2022-12-18T18:38:48.403Z,70.86
2022-12-18T18:41:37.620Z,70.93
2022-12-18T18:44:15.809Z,70.88
2022-12-18T18:47:19.011Z,70.89
2022-12-18T18:50:17.268Z,71.26
2022-12-18T18:53:12.565Z,71.37
2022-12-18T18:59:30.296Z,71.58
2022-12-18T19:02:09.806Z,71.64
2022-12-18T19:04:58.741Z,71.72
2022-12-18T19:07:33.584Z,71.65
2022-12-18T19:10:28.519Z,71.50
2022-12-18T19:13:28.474Z,71.52
2022-12-18T19:16:23.551Z,71.76
2022-12-18T19:19:29.037Z,71.55
2022-12-18T19:22:18.887Z,71.54
2022-12-18T19:25:06.506Z,71.35
2022-12-18T19:28:03.726Z,71.77
2022-12-18T19:30:59.383Z,71.91
2022-12-18T19:33:43.462Z,71.60
2022-12-18T19:36:35.759Z,71.71
2022-12-18T19:39:16.603Z,71.81
2022-12-18T19:42:04.549Z,71.93
2022-12-18T19:44:59.662Z,72.03
2022-12-18T19:48:02.626Z,72.11
2022-12-18T19:51:00.456Z,72.29
2022-12-18T19:53:58.894Z,72.45
2022-12-18T19:56:47.643Z,72.39
2022-12-18T19:59:31.005Z,72.43
2022-12-18T20:02:28.892Z,72.35
2022-12-18T20:05:36.540Z,72.29
2022-12-18T20:08:24.583Z,71.98
2022-12-18T20:10:59.578Z,71.64
2022-12-18T20:13:50.910Z,71.01
2022-12-18T20:16:47.512Z,70.78
2022-12-18T20:19:43.578Z,70.60
2022-12-18T20:22:41.474Z,70.38
2022-12-18T20:25:39.623Z,70.28
2022-12-18T20:28:40.405Z,70.32
2022-12-18T20:31:38.499Z,70.59
2022-12-18T20:34:34.620Z,70.88
2022-12-18T20:37:30.649Z,71.03
2022-12-18T20:40:32.296Z,71.26
2022-12-18T20:46:37.639Z,72.23
2022-12-18T20:49:12.748Z,72.41
2022-12-18T20:52:07.012Z,72.49
2022-12-18T20:55:01.449Z,72.65
2022-12-18T20:57:56.416Z,72.65
2022-12-18T21:00:57.174Z,72.90
2022-12-18T21:03:56.493Z,73.04
2022-12-18T21:06:49.405Z,73.14
2022-12-18T21:09:47.647Z,73.32
2022-12-18T21:12:48.137Z,73.36
2022-12-18T21:15:35.694Z,73.25
2022-12-18T21:18:29.056Z,73.18
2022-12-18T21:21:14.290Z,73.52
2022-12-18T21:24:12.415Z,73.79
2022-12-18T21:27:00.424Z,73.95
2022-12-18T21:29:35.600Z,74.25
2022-12-18T21:32:33.377Z,74.26
2022-12-18T21:35:28.416Z,73.96
2022-12-18T21:38:27.485Z,74.20
2022-12-18T21:41:42.618Z,74.37
2022-12-18T21:44:30.413Z,74.19
2022-12-18T21:47:17.584Z,74.08
2022-12-18T21:50:11.422Z,74.19
2022-12-18T21:52:54.772Z,74.12
2022-12-18T21:55:49.404Z,74.31
2022-12-18T21:58:37.401Z,74.40
2022-12-18T22:01:12.582Z,74.52
2022-12-18T22:04:00.474Z,74.51
2022-12-18T22:06:55.632Z,74.71
2022-12-18T22:09:47.416Z,74.67
2022-12-18T22:12:35.852Z,74.54
2022-12-18T22:15:31.421Z,74.57
2022-12-18T22:18:06.739Z,74.26
2022-12-18T22:20:54.418Z,74.27
2022-12-18T22:23:36.397Z,74.25
2022-12-18T22:26:24.395Z,74.18
2022-12-18T22:29:24.457Z,74.19
2022-12-18T22:32:31.196Z,74.11
2022-12-18T22:35:26.401Z,74.14
2022-12-18T22:38:21.403Z,74.32
2022-12-18T22:41:09.671Z,74.54
2022-12-18T22:43:44.528Z,74.61
2022-12-18T22:46:39.664Z,74.50
2022-12-18T22:49:37.411Z,74.69
2022-12-18T22:52:32.392Z,74.74
2022-12-18T22:55:27.781Z,74.66
2022-12-18T22:58:15.432Z,74.71
2022-12-18T23:00:57.398Z,74.67
2022-12-18T23:03:52.414Z,74.78
2022-12-18T23:06:47.392Z,74.70
2022-12-18T23:09:35.388Z,74.40
2022-12-18T23:12:10.526Z,74.31
2022-12-18T23:14:58.416Z,74.45
2022-12-18T23:17:33.578Z,74.69
2022-12-18T23:20:28.406Z,74.67
2022-12-18T23:23:23.367Z,74.61
2022-12-18T23:26:14.394Z,74.46
2022-12-18T23:29:04.024Z,74.55
2022-12-18T23:31:54.485Z,74.35
2022-12-18T23:34:29.533Z,74.33
2022-12-18T23:37:56.965Z,74.38
2022-12-18T23:40:32.381Z,74.13
2022-12-18T23:43:07.517Z,74.07
2022-12-18T23:46:02.401Z,74.13
2022-12-18T23:48:57.364Z,73.87
2022-12-18T23:51:52.389Z,73.90
2022-12-18T23:54:47.380Z,73.90
2022-12-18T23:57:42.585Z,73.73
